createdAt,value
2024-03-06T00:00:43.716Z,83.58
2024-03-06T00:03:31.447Z,83.54
2024-03-06T00:05:59.225Z,83.04
2024-03-06T00:08:27.505Z,83.03
2024-03-06T00:10:55.492Z,83.30
2024-03-06T00:13:23.324Z,83.36
2024-03-06T00:15:50.986Z,83.21
2024-03-06T00:18:18.915Z,83.17
2024-03-06T00:20:46.723Z,83.37
2024-03-06T00:23:14.485Z,83.15
2024-03-06T00:25:42.389Z,82.95
2024-03-06T00:28:10.651Z,83.38
2024-03-06T00:30:38.500Z,82.77
2024-03-06T00:33:06.524Z,82.64
2024-03-06T00:35:34.438Z,82.85
2024-03-06T00:38:04.370Z,83.00
2024-03-06T00:40:32.510Z,83.27
2024-03-06T00:43:00.405Z,82.88
2024-03-06T00:45:28.165Z,82.90
2024-03-06T00:47:55.938Z,82.89
2024-03-06T00:50:23.771Z,82.83
2024-03-06T00:52:51.703Z,83.25
2024-03-06T00:55:19.630Z,83.41
2024-03-06T00:57:47.585Z,83.26
2024-03-06T01:00:16.793Z,83.29
2024-03-06T01:02:44.653Z,83.58
2024-03-06T01:05:13.159Z,83.02
2024-03-06T01:07:40.934Z,83.11
2024-03-06T01:10:09.596Z,83.23
2024-03-06T01:12:37.579Z,82.88
2024-03-06T01:15:05.418Z,83.33
2024-03-06T01:17:33.317Z,83.09
2024-03-06T01:20:02.017Z,83.17
2024-03-06T01:22:30.101Z,83.01
2024-03-06T01:24:58.010Z,82.77
2024-03-06T01:27:25.776Z,82.72
2024-03-06T01:29:53.656Z,82.90
2024-03-06T01:32:21.734Z,82.80
2024-03-06T01:34:49.838Z,83.22
2024-03-06T01:37:17.663Z,82.88
2024-03-06T01:39:45.408Z,82.94
2024-03-06T01:42:13.178Z,83.11
2024-03-06T01:44:40.945Z,83.34
2024-03-06T01:47:08.771Z,83.40
2024-03-06T01:49:44.139Z,83.24
2024-03-06T01:52:13.045Z,83.04
2024-03-06T01:54:40.805Z,83.19
2024-03-06T01:57:08.512Z,83.48
2024-03-06T01:59:37.521Z,83.46
2024-03-06T02:02:05.912Z,83.24
2024-03-06T02:04:33.745Z,83.32
2024-03-06T02:07:01.568Z,83.39
2024-03-06T02:09:29.233Z,83.25
2024-03-06T02:11:57.047Z,83.71
2024-03-06T02:16:52.589Z,83.22
2024-03-06T02:19:20.391Z,83.58
2024-03-06T02:21:48.156Z,84.00
2024-03-06T02:24:16.021Z,84.19
2024-03-06T02:26:43.787Z,84.31
2024-03-06T02:29:11.962Z,84.58
2024-03-06T02:31:40.694Z,84.70
2024-03-06T02:34:08.531Z,84.72
2024-03-06T02:36:37.403Z,84.41
2024-03-06T02:39:10.355Z,84.15
2024-03-06T02:41:38.360Z,83.91
2024-03-06T02:44:06.264Z,83.97
2024-03-06T02:46:35.148Z,84.11
2024-03-06T02:49:03.211Z,84.15
2024-03-06T02:51:30.959Z,84.47
2024-03-06T02:53:58.822Z,84.19
2024-03-06T02:56:26.584Z,84.22
2024-03-06T02:58:54.464Z,84.10
2024-03-06T03:01:22.420Z,84.24
2024-03-06T03:03:50.184Z,84.25
2024-03-06T03:06:17.948Z,83.99
2024-03-06T03:08:45.712Z,83.92
2024-03-06T03:11:13.629Z,83.37
2024-03-06T03:13:41.460Z,83.44
2024-03-06T03:16:09.318Z,83.67
2024-03-06T03:18:37.075Z,83.37
2024-03-06T03:21:04.741Z,83.72
2024-03-06T03:23:32.503Z,83.52
2024-03-06T03:26:00.324Z,83.61
2024-03-06T03:28:28.545Z,83.36
2024-03-06T03:30:56.409Z,83.48
2024-03-06T03:33:24.173Z,83.50
2024-03-06T03:35:52.593Z,83.90
2024-03-06T03:38:20.379Z,83.55
2024-03-06T03:40:48.178Z,83.68
2024-03-06T03:43:15.904Z,83.47
2024-03-06T03:45:43.543Z,83.69
2024-03-06T03:48:11.209Z,83.58
2024-03-06T03:50:38.934Z,84.29
2024-03-06T03:53:06.633Z,83.69
2024-03-06T03:55:34.752Z,83.83
2024-03-06T03:58:02.400Z,83.75
2024-03-06T04:00:30.299Z,83.89
2024-03-06T04:02:58.266Z,83.90
2024-03-06T04:05:26.092Z,83.85
2024-03-06T04:07:53.913Z,83.74
2024-03-06T04:10:22.388Z,83.76
2024-03-06T04:12:50.359Z,83.73
2024-03-06T04:15:18.676Z,83.87
2024-03-06T04:17:46.533Z,83.63
2024-03-06T04:20:14.511Z,83.58
2024-03-06T04:22:42.602Z,83.33
2024-03-06T04:25:11.121Z,83.57
2024-03-06T04:27:38.781Z,84.04
2024-03-06T04:30:06.743Z,84.15
2024-03-06T04:32:34.666Z,83.91
2024-03-06T04:35:02.545Z,83.92
2024-03-06T04:37:31.044Z,84.07
2024-03-06T04:39:58.875Z,84.12
2024-03-06T04:42:26.809Z,84.29
2024-03-06T04:44:54.675Z,83.81
2024-03-06T04:47:22.530Z,84.32
2024-03-06T04:49:51.538Z,83.88
2024-03-06T04:52:19.423Z,83.89
2024-03-06T04:54:47.356Z,84.13
2024-03-06T04:57:15.120Z,84.04
2024-03-06T04:59:42.884Z,84.06
2024-03-06T05:02:10.716Z,84.14
2024-03-06T05:59:47.495Z,84.11
2024-03-06T06:02:17.607Z,84.48
2024-03-06T06:04:51.993Z,84.26
2024-03-06T06:07:28.309Z,84.44
2024-03-06T06:09:56.055Z,84.71
2024-03-06T06:12:23.841Z,84.51
2024-03-06T06:14:51.687Z,84.44
2024-03-06T06:17:20.703Z,84.41
2024-03-06T06:19:49.161Z,84.50
2024-03-06T06:22:16.929Z,84.64
2024-03-06T06:24:47.738Z,84.73
2024-03-06T06:27:15.833Z,84.87
2024-03-06T06:29:43.625Z,84.77
2024-03-06T06:32:11.460Z,84.80
2024-03-06T06:34:39.351Z,84.75
2024-03-06T06:37:07.228Z,84.85
2024-03-06T06:39:35.887Z,85.17
2024-03-06T06:42:04.572Z,85.03
2024-03-06T06:44:32.822Z,84.88
2024-03-06T06:47:00.601Z,84.73
2024-03-06T06:49:28.298Z,84.96
2024-03-06T06:51:56.152Z,84.84
2024-03-06T06:54:23.897Z,85.16
2024-03-06T06:56:51.522Z,85.22
2024-03-06T06:59:23.289Z,85.08
2024-03-06T07:01:52.315Z,85.40
2024-03-06T07:04:21.555Z,85.41
2024-03-06T07:06:49.226Z,85.33
2024-03-06T07:09:17.044Z,85.59
2024-03-06T07:11:46.067Z,85.19
2024-03-06T07:14:13.979Z,85.00
2024-03-06T07:16:41.895Z,84.98
2024-03-06T07:19:09.684Z,85.46
2024-03-06T07:21:37.501Z,85.61
2024-03-06T07:24:05.582Z,85.59
2024-03-06T07:26:34.042Z,85.42
2024-03-06T07:29:02.479Z,85.57
2024-03-06T07:31:30.500Z,85.55
2024-03-06T07:33:58.389Z,85.62
2024-03-06T07:36:26.066Z,85.84
2024-03-06T07:38:53.821Z,85.55
2024-03-06T07:41:21.581Z,85.54
2024-03-06T07:43:49.953Z,85.61
2024-03-06T07:46:17.703Z,85.46
2024-03-06T07:48:45.680Z,85.56
2024-03-06T07:51:13.535Z,85.52
2024-03-06T07:53:41.414Z,85.69
2024-03-06T07:56:08.262Z,85.72
2024-03-06T07:58:35.402Z,85.55
2024-03-06T08:01:02.328Z,85.56
2024-03-06T08:03:29.194Z,85.64
2024-03-06T08:05:56.280Z,85.65
2024-03-06T08:08:23.427Z,85.86
2024-03-06T08:10:50.691Z,85.70
2024-03-06T08:13:17.768Z,85.73
2024-03-06T08:15:46.291Z,85.52
2024-03-06T08:18:13.240Z,85.50
2024-03-06T08:20:40.470Z,85.73
2024-03-06T08:23:07.443Z,85.75
2024-03-06T08:25:34.410Z,85.95
2024-03-06T08:28:01.309Z,85.98
2024-03-06T08:30:28.156Z,85.79
2024-03-06T08:32:55.149Z,85.47
2024-03-06T08:35:23.196Z,85.89
2024-03-06T08:37:50.132Z,85.87
2024-03-06T08:40:16.946Z,86.16
2024-03-06T08:42:44.128Z,86.03
2024-03-06T08:45:10.980Z,86.16
2024-03-06T08:47:37.960Z,86.08
2024-03-06T08:50:04.891Z,86.12
2024-03-06T08:52:36.058Z,85.95
2024-03-06T08:55:05.547Z,85.90
2024-03-06T08:57:32.653Z,86.00
2024-03-06T08:59:59.398Z,86.21
2024-03-06T09:02:26.880Z,86.08
2024-03-06T09:04:53.796Z,86.20
2024-03-06T09:07:20.551Z,86.28
2024-03-06T09:09:47.262Z,86.30
2024-03-06T09:12:15.890Z,86.25
2024-03-06T09:14:43.281Z,86.18
2024-03-06T09:17:16.887Z,86.33
2024-03-06T09:22:13.748Z,86.28
2024-03-06T09:24:40.602Z,86.14
2024-03-06T09:27:07.442Z,86.03
2024-03-06T09:29:34.387Z,86.24
2024-03-06T09:32:01.368Z,86.34
2024-03-06T09:34:28.268Z,86.47
2024-03-06T09:36:54.946Z,86.69
2024-03-06T09:39:22.059Z,86.39
2024-03-06T09:41:48.767Z,86.33
2024-03-06T09:44:15.868Z,86.55
2024-03-06T09:46:42.758Z,86.63
2024-03-06T09:49:09.575Z,86.55
2024-03-06T09:51:36.256Z,86.32
2024-03-06T09:54:04.099Z,86.24
2024-03-06T09:56:30.814Z,86.31
2024-03-06T09:58:57.509Z,86.26
2024-03-06T10:01:24.291Z,86.36
2024-03-06T10:03:51.779Z,86.64
2024-03-06T10:06:18.536Z,86.43
2024-03-06T10:08:45.411Z,86.29
2024-03-06T10:11:12.281Z,86.36
2024-03-06T10:13:39.176Z,86.46
2024-03-06T10:16:09.864Z,86.53
2024-03-06T10:18:36.929Z,86.94
2024-03-06T10:21:05.475Z,87.05
2024-03-06T10:23:32.452Z,86.81
2024-03-06T10:25:59.315Z,86.79
2024-03-06T10:28:26.093Z,86.75
2024-03-06T10:30:53.480Z,87.03
2024-03-06T10:33:20.247Z,86.96
2024-03-06T10:35:49.419Z,86.93
2024-03-06T10:38:16.459Z,86.91
2024-03-06T10:40:43.114Z,87.04
2024-03-06T10:43:09.960Z,87.19
2024-03-06T10:45:36.721Z,87.24
2024-03-06T10:48:04.647Z,87.36
2024-03-06T10:50:31.623Z,87.40
2024-03-06T10:52:58.528Z,87.34
2024-03-06T10:55:25.270Z,87.26
2024-03-06T10:57:52.079Z,87.15
2024-03-06T11:00:20.522Z,87.23
2024-03-06T11:02:47.538Z,86.83
2024-03-06T11:05:14.465Z,87.02
2024-03-06T11:07:41.289Z,87.17
2024-03-06T11:10:08.951Z,87.15
2024-03-06T11:12:35.650Z,87.41
2024-03-06T11:15:04.904Z,87.35
2024-03-06T11:17:31.654Z,87.29
2024-03-06T11:19:58.407Z,87.37
2024-03-06T11:22:25.140Z,87.41
2024-03-06T11:24:51.953Z,87.41
2024-03-06T11:27:18.797Z,87.36
2024-03-06T11:29:45.679Z,87.48
2024-03-06T11:32:13.392Z,87.15
2024-03-06T11:34:40.278Z,87.24
2024-03-06T11:37:08.620Z,87.04
2024-03-06T11:39:38.545Z,87.13
2024-03-06T11:42:11.530Z,87.19
2024-03-06T11:44:38.514Z,87.43
2024-03-06T11:47:05.437Z,87.47
2024-03-06T11:49:34.999Z,87.56
2024-03-06T11:52:01.869Z,87.27
2024-03-06T11:54:29.305Z,87.44
2024-03-06T11:56:56.268Z,87.63
2024-03-06T11:59:23.346Z,87.67
2024-03-06T12:01:50.066Z,87.76
2024-03-06T12:04:16.768Z,87.83
2024-03-06T12:06:43.584Z,88.00
2024-03-06T12:09:12.407Z,87.85
2024-03-06T12:11:39.357Z,87.91
2024-03-06T12:14:06.535Z,87.66
2024-03-06T12:16:33.219Z,87.85
2024-03-06T12:18:59.934Z,87.81
2024-03-06T12:21:26.643Z,87.90
2024-03-06T12:23:53.346Z,87.96
2024-03-06T12:26:20.033Z,88.16
2024-03-06T12:28:46.757Z,88.21
2024-03-06T12:31:13.601Z,87.95
2024-03-06T12:33:40.469Z,87.77
2024-03-06T12:36:07.623Z,87.82
2024-03-06T12:38:34.651Z,87.68
2024-03-06T12:41:01.528Z,88.03
2024-03-06T12:43:30.217Z,87.98
2024-03-06T12:45:59.290Z,87.86
2024-03-06T12:48:27.305Z,87.76
2024-03-06T12:50:55.791Z,87.61
2024-03-06T12:53:22.805Z,87.90
2024-03-06T12:55:49.919Z,87.59
2024-03-06T12:58:16.770Z,88.26
2024-03-06T13:00:43.595Z,87.90
2024-03-06T13:03:11.673Z,87.67
2024-03-06T13:05:38.690Z,87.67
2024-03-06T13:08:05.594Z,88.49
2024-03-06T13:10:33.216Z,88.52
2024-03-06T13:12:59.975Z,88.73
2024-03-06T13:15:26.806Z,88.73
2024-03-06T13:17:53.707Z,88.53
2024-03-06T13:20:20.654Z,88.94
2024-03-06T13:22:47.544Z,88.83
2024-03-06T13:25:14.381Z,88.90
2024-03-06T13:27:41.058Z,88.78
2024-03-06T13:30:09.590Z,88.40
2024-03-06T13:32:36.729Z,88.41
2024-03-06T13:35:03.688Z,88.30
2024-03-06T13:37:30.382Z,88.55
2024-03-06T13:40:02.080Z,88.53
2024-03-06T13:42:29.046Z,88.42
2024-03-06T13:44:57.077Z,88.08
2024-03-06T13:47:24.589Z,88.18
2024-03-06T13:49:51.504Z,88.43
2024-03-06T13:52:21.658Z,88.03
2024-03-06T13:54:51.658Z,88.17
2024-03-06T13:57:18.489Z,88.40
2024-03-06T13:59:45.437Z,87.89
2024-03-06T14:02:12.515Z,87.90
2024-03-06T14:04:39.528Z,88.08
2024-03-06T14:07:06.321Z,87.99
2024-03-06T14:09:33.304Z,87.98
2024-03-06T14:12:00.417Z,87.95
2024-03-06T14:14:27.440Z,87.72
2024-03-06T14:16:54.404Z,87.47
2024-03-06T14:19:22.929Z,88.05
2024-03-06T14:21:49.879Z,87.65
2024-03-06T14:24:16.738Z,87.70
2024-03-06T14:26:43.674Z,87.59
2024-03-06T14:29:11.107Z,87.42
2024-03-06T14:31:38.069Z,87.42
2024-03-06T14:34:06.759Z,87.56
2024-03-06T14:36:34.104Z,87.35
2024-03-06T14:39:00.849Z,87.41
2024-03-06T14:41:27.610Z,87.14
2024-03-06T14:43:55.349Z,87.27
2024-03-06T14:46:22.300Z,87.23
2024-03-06T14:48:49.139Z,87.16
2024-03-06T14:51:16.538Z,87.15
2024-03-06T14:53:43.363Z,87.45
2024-03-06T14:56:12.462Z,86.85
2024-03-06T14:58:39.591Z,86.59
2024-03-06T15:01:06.578Z,86.71
2024-03-06T15:03:33.576Z,86.98
2024-03-06T15:06:01.246Z,86.92
2024-03-06T15:08:28.358Z,86.82
2024-03-06T15:10:55.513Z,86.98
2024-03-06T15:13:24.225Z,87.24
2024-03-06T15:15:51.999Z,86.92
2024-03-06T15:18:19.038Z,87.01
2024-03-06T15:20:45.956Z,87.16
2024-03-06T15:23:12.905Z,86.85
2024-03-06T15:25:39.759Z,87.10
2024-03-06T15:28:06.434Z,86.78
2024-03-06T15:30:35.648Z,86.41
2024-03-06T15:33:04.321Z,86.69
2024-03-06T15:35:31.360Z,87.06
2024-03-06T15:37:58.017Z,87.09
2024-03-06T15:40:26.435Z,86.94
2024-03-06T15:42:56.340Z,86.60
2024-03-06T15:45:24.349Z,86.33
2024-03-06T15:47:51.241Z,86.91
2024-03-06T15:50:18.177Z,86.87
2024-03-06T15:52:45.071Z,86.99
2024-03-06T15:55:11.928Z,86.77
2024-03-06T15:57:38.784Z,86.50
2024-03-06T16:00:07.454Z,86.56
2024-03-06T16:02:34.320Z,86.81
2024-03-06T16:05:01.165Z,86.82
2024-03-06T16:07:28.706Z,86.81
2024-03-06T16:09:55.535Z,86.62
2024-03-06T16:12:22.822Z,86.44
2024-03-06T16:14:49.897Z,86.33
2024-03-06T16:17:16.899Z,86.48
2024-03-06T16:19:47.060Z,86.19
2024-03-06T16:22:14.249Z,86.17
2024-03-06T16:24:40.947Z,86.06
2024-03-06T16:27:07.599Z,85.58
2024-03-06T16:29:34.714Z,85.37
2024-03-06T16:32:03.771Z,85.43
2024-03-06T16:34:32.566Z,85.39
2024-03-06T16:36:59.375Z,85.41
2024-03-06T16:39:26.357Z,85.38
2024-03-06T16:41:53.224Z,85.29
2024-03-06T16:44:21.898Z,85.16
2024-03-06T16:46:49.949Z,85.00
2024-03-06T16:49:16.793Z,85.10
2024-03-06T16:51:43.627Z,84.99
2024-03-06T16:54:10.373Z,85.03
2024-03-06T16:56:37.260Z,84.96
2024-03-06T16:59:04.326Z,84.86
2024-03-06T17:01:31.617Z,84.82
2024-03-06T17:04:00.298Z,84.69
2024-03-06T17:06:28.175Z,84.81
2024-03-06T17:08:55.968Z,84.93
2024-03-06T17:11:24.020Z,84.96
2024-03-06T17:13:51.970Z,85.09
2024-03-06T17:16:19.836Z,84.93
2024-03-06T17:18:47.664Z,84.59
2024-03-06T17:21:15.978Z,84.54
2024-03-06T17:23:45.239Z,84.25
2024-03-06T17:26:13.635Z,84.61
2024-03-06T17:28:41.625Z,84.46
2024-03-06T17:31:09.426Z,84.25
2024-03-06T17:33:37.218Z,84.06
2024-03-06T17:36:05.124Z,84.42
2024-03-06T17:38:33.201Z,84.23
2024-03-06T17:41:00.989Z,84.35
2024-03-06T17:43:29.138Z,84.29
2024-03-06T17:45:57.205Z,84.59
2024-03-06T17:48:25.119Z,84.37
2024-03-06T17:50:53.027Z,84.21
2024-03-06T17:53:20.965Z,83.83
2024-03-06T17:55:48.977Z,83.89
2024-03-06T17:58:16.743Z,83.82
2024-03-06T18:00:44.509Z,84.09
2024-03-06T18:03:12.371Z,84.01
2024-03-06T18:05:40.274Z,83.93
2024-03-06T18:08:08.381Z,84.04
2024-03-06T18:10:36.237Z,83.88
2024-03-06T18:13:04.562Z,83.65
2024-03-06T18:15:32.327Z,83.71
2024-03-06T18:18:00.201Z,84.03
2024-03-06T18:20:30.698Z,84.03
2024-03-06T18:22:58.784Z,84.16
2024-03-06T18:25:30.362Z,84.24
2024-03-06T18:27:58.410Z,84.26
2024-03-06T18:30:26.175Z,83.88
2024-03-06T18:32:54.141Z,83.87
2024-03-06T18:35:22.245Z,83.80
2024-03-06T18:37:51.207Z,83.84
2024-03-06T18:40:18.969Z,83.84
2024-03-06T18:42:47.026Z,83.53
2024-03-06T18:45:16.454Z,83.38
2024-03-06T18:47:46.553Z,83.58
2024-03-06T18:50:14.570Z,83.43
2024-03-06T18:52:42.400Z,83.52
2024-03-06T18:55:11.808Z,83.59
2024-03-06T18:57:39.893Z,83.68
2024-03-06T19:00:07.752Z,83.61
2024-03-06T19:02:35.588Z,83.71
2024-03-06T19:05:05.336Z,83.55
2024-03-06T19:07:33.183Z,83.41
2024-03-06T19:10:01.664Z,83.54
2024-03-06T19:12:29.558Z,83.53
2024-03-06T19:14:57.330Z,83.75
2024-03-06T19:17:25.098Z,83.77
2024-03-06T19:19:54.161Z,83.62
2024-03-06T19:22:21.940Z,83.30
2024-03-06T19:24:50.916Z,83.76
2024-03-06T19:27:21.478Z,83.90
2024-03-06T19:29:49.223Z,84.04
2024-03-06T19:32:16.996Z,83.90
2024-03-06T19:34:45.754Z,83.76
2024-03-06T19:37:13.461Z,83.49
2024-03-06T19:39:41.286Z,83.49
2024-03-06T19:42:10.511Z,83.57
2024-03-06T19:44:38.322Z,83.69
2024-03-06T19:47:06.129Z,83.72
2024-03-06T19:49:33.984Z,83.41
2024-03-06T19:52:02.272Z,83.36
2024-03-06T19:54:32.179Z,83.30
2024-03-06T19:57:03.656Z,83.38
2024-03-06T19:59:31.643Z,83.48
2024-03-06T20:01:59.643Z,83.49
2024-03-06T20:04:27.536Z,83.19
2024-03-06T20:06:55.685Z,82.97
2024-03-06T20:09:26.640Z,83.11
2024-03-06T20:11:55.871Z,82.80
2024-03-06T20:14:23.858Z,82.61
2024-03-06T20:16:51.778Z,82.73
2024-03-06T20:19:19.596Z,82.87
2024-03-06T20:21:48.871Z,82.76
2024-03-06T20:24:16.815Z,82.76
2024-03-06T20:26:44.683Z,82.61
2024-03-06T20:29:12.570Z,82.67
2024-03-06T20:31:40.329Z,82.54
2024-03-06T20:34:08.531Z,82.22
2024-03-06T20:36:36.362Z,82.31
2024-03-06T20:39:04.171Z,82.54
2024-03-06T20:41:32.420Z,82.58
2024-03-06T20:44:00.378Z,82.48
2024-03-06T20:46:28.124Z,82.51
2024-03-06T20:48:56.000Z,82.44
2024-03-06T20:51:23.764Z,82.43
2024-03-06T20:53:51.476Z,82.27
2024-03-06T20:56:19.210Z,82.36
2024-03-06T20:58:46.893Z,82.42
2024-03-06T21:01:14.568Z,82.40
2024-03-06T21:03:42.376Z,82.36
2024-03-06T21:06:14.750Z,82.32
2024-03-06T21:08:42.532Z,82.24
2024-03-06T21:11:10.503Z,82.22
2024-03-06T21:13:39.577Z,82.06
2024-03-06T21:16:07.341Z,82.31
2024-03-06T21:18:35.101Z,82.15
2024-03-06T21:21:05.349Z,82.23
2024-03-06T21:23:33.471Z,82.57
2024-03-06T21:26:01.260Z,82.47
2024-03-06T21:28:29.852Z,82.63
2024-03-06T21:30:58.327Z,82.51
2024-03-06T21:33:26.146Z,82.53
2024-03-06T21:35:53.980Z,82.45
2024-03-06T21:38:21.955Z,82.74
2024-03-06T21:40:49.700Z,82.77
2024-03-06T21:43:17.651Z,82.69
2024-03-06T21:45:45.462Z,82.66
2024-03-06T21:48:13.593Z,82.72
2024-03-06T21:50:41.415Z,82.61
2024-03-06T21:53:09.154Z,82.59
2024-03-06T21:55:36.891Z,82.58
2024-03-06T21:58:04.752Z,82.64
2024-03-06T22:00:33.114Z,82.95
2024-03-06T22:03:01.076Z,82.73
2024-03-06T22:05:28.918Z,82.41
2024-03-06T22:07:57.207Z,82.42
2024-03-06T22:10:26.062Z,82.59
2024-03-06T22:12:53.898Z,82.64
2024-03-06T22:15:21.679Z,82.91
2024-03-06T22:17:49.788Z,82.68
2024-03-06T22:20:18.039Z,82.70
2024-03-06T22:22:45.894Z,82.68
2024-03-06T22:25:13.678Z,82.52
2024-03-06T22:27:41.616Z,82.50
2024-03-06T22:30:09.400Z,82.75
2024-03-06T22:32:37.441Z,82.63
2024-03-06T22:35:05.416Z,82.68
2024-03-06T22:37:33.190Z,82.51
2024-03-06T22:40:00.952Z,82.66
2024-03-06T22:42:28.814Z,82.35
2024-03-06T22:44:56.646Z,82.18
2024-03-06T22:47:24.504Z,82.34
2024-03-06T22:49:53.433Z,82.31
2024-03-06T22:52:21.299Z,82.42
2024-03-06T22:54:49.082Z,82.46
2024-03-06T22:57:16.937Z,82.41
2024-03-06T22:59:44.853Z,82.53
2024-03-06T23:02:12.671Z,82.26
2024-03-06T23:04:40.431Z,82.27
2024-03-06T23:07:08.397Z,82.52
2024-03-06T23:09:36.167Z,82.36
2024-03-06T23:12:04.324Z,82.30
2024-03-06T23:14:32.154Z,82.15
2024-03-06T23:16:59.971Z,82.32
2024-03-06T23:19:27.736Z,82.31
2024-03-06T23:21:57.851Z,82.17
2024-03-06T23:24:26.116Z,82.16
2024-03-06T23:26:54.088Z,82.17
2024-03-06T23:29:22.117Z,82.07
2024-03-06T23:31:50.031Z,82.26
2024-03-06T23:34:17.902Z,82.29
2024-03-06T23:36:45.867Z,82.24
2024-03-06T23:39:13.935Z,82.06
2024-03-06T23:41:41.788Z,81.98
2024-03-06T23:44:09.587Z,82.29
2024-03-06T23:46:37.545Z,82.43
2024-03-06T23:49:05.306Z,82.27
2024-03-06T23:51:34.808Z,82.47
2024-03-06T23:54:02.572Z,82.56
2024-03-06T23:56:30.979Z,82.32
2024-03-06T23:58:59.119Z,82.09
